sensor_id;sensor_type;location;lat;lon;timestamp;P1;durP1;ratioP1;P2;durP2;ratioP2
75939;SDS011;75809;44.872;20.642;2024-03-02T00:02:06;21.27;;;10.55;;
75939;SDS011;75809;44.872;20.642;2024-03-02T00:04:32;24.98;;;11.30;;
75939;SDS011;75809;44.872;20.642;2024-03-02T00:06:57;23.60;;;11.55;;
75939;SDS011;75809;44.872;20.642;2024-03-02T00:09:23;23.70;;;12.02;;
75939;SDS011;75809;44.872;20.642;2024-03-02T00:11:49;25.35;;;11.35;;
75939;SDS011;75809;44.872;20.642;2024-03-02T00:14:16;21.77;;;11.20;;
75939;SDS011;75809;44.872;20.642;2024-03-02T00:16:41;18.85;;;10.20;;
75939;SDS011;75809;44.872;20.642;2024-03-02T00:19:07;19.38;;;10.15;;
75939;SDS011;75809;44.872;20.642;2024-03-02T00:21:34;21.58;;;11.02;;
75939;SDS011;75809;44.872;20.642;2024-03-02T00:24:00;21.95;;;10.70;;
75939;SDS011;75809;44.872;20.642;2024-03-02T00:26:32;22.95;;;10.25;;
75939;SDS011;75809;44.872;20.642;2024-03-02T00:28:57;16.52;;;8.60;;
75939;SDS011;75809;44.872;20.642;2024-03-02T00:31:25;19.15;;;8.93;;
75939;SDS011;75809;44.872;20.642;2024-03-02T00:33:51;19.20;;;10.07;;
75939;SDS011;75809;44.872;20.642;2024-03-02T00:36:21;21.25;;;10.13;;
75939;SDS011;75809;44.872;20.642;2024-03-02T00:38:50;19.55;;;9.68;;
75939;SDS011;75809;44.872;20.642;2024-03-02T00:46:27;19.50;;;9.10;;
75939;SDS011;75809;44.872;20.642;2024-03-02T00:48:57;15.27;;;7.95;;
75939;SDS011;75809;44.872;20.642;2024-03-02T00:51:25;15.38;;;8.13;;
75939;SDS011;75809;44.872;20.642;2024-03-02T00:53:53;16.45;;;8.75;;
75939;SDS011;75809;44.872;20.642;2024-03-02T00:56:21;19.92;;;8.32;;
75939;SDS011;75809;44.872;20.642;2024-03-02T00:58:47;17.13;;;7.72;;
75939;SDS011;75809;44.872;20.642;2024-03-02T01:01:13;17.20;;;8.25;;
75939;SDS011;75809;44.872;20.642;2024-03-02T01:03:38;17.77;;;8.88;;
75939;SDS011;75809;44.872;20.642;2024-03-02T01:06:04;16.60;;;7.75;;
75939;SDS011;75809;44.872;20.642;2024-03-02T01:08:31;15.80;;;7.68;;
75939;SDS011;75809;44.872;20.642;2024-03-02T01:10:57;17.42;;;8.65;;
75939;SDS011;75809;44.872;20.642;2024-03-02T01:13:22;15.40;;;7.05;;
75939;SDS011;75809;44.872;20.642;2024-03-02T01:15:48;14.98;;;7.22;;
75939;SDS011;75809;44.872;20.642;2024-03-02T01:18:14;17.92;;;8.77;;
75939;SDS011;75809;44.872;20.642;2024-03-02T01:20:39;17.10;;;7.97;;
75939;SDS011;75809;44.872;20.642;2024-03-02T01:23:05;15.95;;;7.53;;
75939;SDS011;75809;44.872;20.642;2024-03-02T01:25:30;20.73;;;8.25;;
75939;SDS011;75809;44.872;20.642;2024-03-02T01:27:56;16.83;;;8.82;;
75939;SDS011;75809;44.872;20.642;2024-03-02T01:30:21;18.73;;;8.73;;
75939;SDS011;75809;44.872;20.642;2024-03-02T01:32:47;15.52;;;7.72;;
75939;SDS011;75809;44.872;20.642;2024-03-02T01:35:12;15.57;;;7.47;;
75939;SDS011;75809;44.872;20.642;2024-03-02T01:37:38;13.68;;;6.43;;
75939;SDS011;75809;44.872;20.642;2024-03-02T01:40:03;16.90;;;7.60;;
75939;SDS011;75809;44.872;20.642;2024-03-02T01:42:35;15.90;;;7.88;;
75939;SDS011;75809;44.872;20.642;2024-03-02T01:45:01;15.52;;;7.38;;
75939;SDS011;75809;44.872;20.642;2024-03-02T01:47:28;18.48;;;7.95;;
75939;SDS011;75809;44.872;20.642;2024-03-02T01:49:54;14.65;;;7.30;;
75939;SDS011;75809;44.872;20.642;2024-03-02T01:52:19;13.68;;;7.13;;
75939;SDS011;75809;44.872;20.642;2024-03-02T01:54:45;16.42;;;7.25;;
75939;SDS011;75809;44.872;20.642;2024-03-02T01:57:10;17.75;;;7.32;;
75939;SDS011;75809;44.872;20.642;2024-03-02T01:59:36;16.77;;;7.63;;
75939;SDS011;75809;44.872;20.642;2024-03-02T02:02:01;12.20;;;5.90;;
75939;SDS011;75809;44.872;20.642;2024-03-02T02:04:27;18.17;;;7.57;;
75939;SDS011;75809;44.872;20.642;2024-03-02T02:06:53;14.68;;;7.55;;
75939;SDS011;75809;44.872;20.642;2024-03-02T02:09:19;16.55;;;7.75;;
75939;SDS011;75809;44.872;20.642;2024-03-02T02:11:44;17.23;;;7.57;;
75939;SDS011;75809;44.872;20.642;2024-03-02T02:14:10;15.85;;;7.03;;
75939;SDS011;75809;44.872;20.642;2024-03-02T02:16:37;15.55;;;7.95;;
75939;SDS011;75809;44.872;20.642;2024-03-02T02:19:02;17.40;;;9.20;;
75939;SDS011;75809;44.872;20.642;2024-03-02T02:21:28;19.20;;;8.70;;
75939;SDS011;75809;44.872;20.642;2024-03-02T02:23:53;19.23;;;8.30;;
75939;SDS011;75809;44.872;20.642;2024-03-02T02:26:19;19.52;;;8.57;;
75939;SDS011;75809;44.872;20.642;2024-03-02T02:28:44;20.27;;;8.93;;
75939;SDS011;75809;44.872;20.642;2024-03-02T02:31:13;17.75;;;8.10;;
75939;SDS011;75809;44.872;20.642;2024-03-02T02:33:42;16.40;;;8.45;;
75939;SDS011;75809;44.872;20.642;2024-03-02T02:36:08;16.92;;;9.00;;
75939;SDS011;75809;44.872;20.642;2024-03-02T02:38:36;17.60;;;8.98;;
75939;SDS011;75809;44.872;20.642;2024-03-02T02:43:36;15.50;;;8.17;;
75939;SDS011;75809;44.872;20.642;2024-03-02T02:46:01;17.95;;;8.57;;
75939;SDS011;75809;44.872;20.642;2024-03-02T02:48:27;18.05;;;9.32;;
75939;SDS011;75809;44.872;20.642;2024-03-02T02:50:52;17.98;;;8.77;;
75939;SDS011;75809;44.872;20.642;2024-03-02T02:53:17;16.23;;;8.50;;
75939;SDS011;75809;44.872;20.642;2024-03-02T02:55:43;15.55;;;8.20;;
75939;SDS011;75809;44.872;20.642;2024-03-02T02:58:09;19.35;;;8.65;;
75939;SDS011;75809;44.872;20.642;2024-03-02T03:00:34;17.95;;;8.55;;
75939;SDS011;75809;44.872;20.642;2024-03-02T03:03:01;18.17;;;8.63;;
75939;SDS011;75809;44.872;20.642;2024-03-02T03:05:27;18.60;;;9.38;;
75939;SDS011;75809;44.872;20.642;2024-03-02T03:07:52;18.52;;;9.00;;
75939;SDS011;75809;44.872;20.642;2024-03-02T03:10:18;18.55;;;8.88;;
75939;SDS011;75809;44.872;20.642;2024-03-02T03:12:45;17.27;;;8.27;;
75939;SDS011;75809;44.872;20.642;2024-03-02T03:15:11;17.08;;;8.55;;
75939;SDS011;75809;44.872;20.642;2024-03-02T03:17:37;15.65;;;7.35;;
75939;SDS011;75809;44.872;20.642;2024-03-02T03:20:03;15.32;;;7.80;;
75939;SDS011;75809;44.872;20.642;2024-03-02T03:22:29;14.20;;;7.05;;
75939;SDS011;75809;44.872;20.642;2024-03-02T03:24:56;12.82;;;6.15;;
75939;SDS011;75809;44.872;20.642;2024-03-02T03:27:22;14.90;;;6.93;;
75939;SDS011;75809;44.872;20.642;2024-03-02T03:29:47;13.13;;;5.75;;
75939;SDS011;75809;44.872;20.642;2024-03-02T03:32:12;13.13;;;6.32;;
75939;SDS011;75809;44.872;20.642;2024-03-02T03:34:38;12.68;;;5.82;;
75939;SDS011;75809;44.872;20.642;2024-03-02T03:37:04;14.13;;;6.60;;
75939;SDS011;75809;44.872;20.642;2024-03-02T03:39:29;13.43;;;6.00;;
75939;SDS011;75809;44.872;20.642;2024-03-02T03:41:55;14.65;;;6.18;;
75939;SDS011;75809;44.872;20.642;2024-03-02T03:44:20;12.18;;;6.18;;
75939;SDS011;75809;44.872;20.642;2024-03-02T03:46:46;13.18;;;5.20;;
75939;SDS011;75809;44.872;20.642;2024-03-02T03:49:12;13.10;;;5.57;;
75939;SDS011;75809;44.872;20.642;2024-03-02T03:51:37;12.23;;;5.13;;
75939;SDS011;75809;44.872;20.642;2024-03-02T03:54:02;13.02;;;4.88;;
75939;SDS011;75809;44.872;20.642;2024-03-02T03:56:28;10.45;;;4.70;;
75939;SDS011;75809;44.872;20.642;2024-03-02T03:58:53;10.45;;;5.18;;
75939;SDS011;75809;44.872;20.642;2024-03-02T04:01:19;11.75;;;5.15;;
75939;SDS011;75809;44.872;20.642;2024-03-02T04:03:44;12.02;;;5.38;;
75939;SDS011;75809;44.872;20.642;2024-03-02T04:06:10;13.18;;;5.57;;
75939;SDS011;75809;44.872;20.642;2024-03-02T04:08:35;12.00;;;5.45;;
75939;SDS011;75809;44.872;20.642;2024-03-02T04:11:01;11.98;;;5.25;;
75939;SDS011;75809;44.872;20.642;2024-03-02T04:13:28;14.30;;;5.28;;
75939;SDS011;75809;44.872;20.642;2024-03-02T04:15:53;9.55;;;4.38;;
75939;SDS011;75809;44.872;20.642;2024-03-02T04:18:19;10.80;;;5.85;;
75939;SDS011;75809;44.872;20.642;2024-03-02T04:20:44;11.52;;;5.07;;
75939;SDS011;75809;44.872;20.642;2024-03-02T04:23:09;12.52;;;5.68;;
75939;SDS011;75809;44.872;20.642;2024-03-02T04:25:35;10.90;;;5.20;;
75939;SDS011;75809;44.872;20.642;2024-03-02T04:28:01;10.57;;;5.35;;
75939;SDS011;75809;44.872;20.642;2024-03-02T04:30:26;10.65;;;4.95;;
75939;SDS011;75809;44.872;20.642;2024-03-02T04:32:52;11.82;;;5.43;;
75939;SDS011;75809;44.872;20.642;2024-03-02T04:35:17;10.02;;;4.50;;
75939;SDS011;75809;44.872;20.642;2024-03-02T04:37:43;13.48;;;4.85;;
75939;SDS011;75809;44.872;20.642;2024-03-02T04:40:09;12.82;;;4.90;;
75939;SDS011;75809;44.872;20.642;2024-03-02T04:42:35;12.40;;;5.05;;
75939;SDS011;75809;44.872;20.642;2024-03-02T04:45:00;11.02;;;4.90;;
75939;SDS011;75809;44.872;20.642;2024-03-02T04:47:26;10.32;;;4.80;;
75939;SDS011;75809;44.872;20.642;2024-03-02T04:49:52;10.63;;;4.32;;
75939;SDS011;75809;44.872;20.642;2024-03-02T04:52:17;10.10;;;4.43;;
75939;SDS011;75809;44.872;20.642;2024-03-02T04:54:43;10.82;;;4.30;;
75939;SDS011;75809;44.872;20.642;2024-03-02T04:57:43;12.07;;;4.60;;
75939;SDS011;75809;44.872;20.642;2024-03-02T05:00:09;9.20;;;4.20;;
75939;SDS011;75809;44.872;20.642;2024-03-02T05:02:35;10.77;;;4.43;;
75939;SDS011;75809;44.872;20.642;2024-03-02T05:05:01;10.82;;;4.93;;
75939;SDS011;75809;44.872;20.642;2024-03-02T05:07:28;11.02;;;4.95;;
75939;SDS011;75809;44.872;20.642;2024-03-02T05:09:53;10.40;;;4.82;;
75939;SDS011;75809;44.872;20.642;2024-03-02T05:12:19;12.27;;;5.32;;
75939;SDS011;75809;44.872;20.642;2024-03-02T05:15:03;9.90;;;4.72;;
75939;SDS011;75809;44.872;20.642;2024-03-02T05:17:29;11.48;;;5.82;;
75939;SDS011;75809;44.872;20.642;2024-03-02T05:19:55;11.38;;;4.90;;
75939;SDS011;75809;44.872;20.642;2024-03-02T05:22:20;11.32;;;5.05;;
75939;SDS011;75809;44.872;20.642;2024-03-02T05:24:46;10.02;;;4.85;;
75939;SDS011;75809;44.872;20.642;2024-03-02T05:27:11;10.38;;;5.25;;
75939;SDS011;75809;44.872;20.642;2024-03-02T05:29:37;11.40;;;5.80;;
75939;SDS011;75809;44.872;20.642;2024-03-02T05:32:02;11.20;;;4.72;;
75939;SDS011;75809;44.872;20.642;2024-03-02T05:34:28;10.82;;;4.95;;
75939;SDS011;75809;44.872;20.642;2024-03-02T05:36:54;11.73;;;4.82;;
75939;SDS011;75809;44.872;20.642;2024-03-02T05:39:19;10.85;;;4.20;;
75939;SDS011;75809;44.872;20.642;2024-03-02T05:41:45;10.52;;;4.63;;
75939;SDS011;75809;44.872;20.642;2024-03-02T05:44:10;11.70;;;4.90;;
75939;SDS011;75809;44.872;20.642;2024-03-02T05:46:36;11.13;;;5.03;;
75939;SDS011;75809;44.872;20.642;2024-03-02T05:49:01;11.70;;;5.53;;
75939;SDS011;75809;44.872;20.642;2024-03-02T05:51:27;12.38;;;4.78;;
75939;SDS011;75809;44.872;20.642;2024-03-02T05:53:52;8.98;;;3.72;;
75939;SDS011;75809;44.872;20.642;2024-03-02T05:56:17;9.32;;;4.25;;
75939;SDS011;75809;44.872;20.642;2024-03-02T05:58:43;8.15;;;3.95;;
75939;SDS011;75809;44.872;20.642;2024-03-02T06:01:23;9.18;;;4.22;;
75939;SDS011;75809;44.872;20.642;2024-03-02T06:03:53;11.68;;;4.70;;
75939;SDS011;75809;44.872;20.642;2024-03-02T06:06:20;7.90;;;3.55;;
75939;SDS011;75809;44.872;20.642;2024-03-02T06:08:46;10.82;;;4.53;;
75939;SDS011;75809;44.872;20.642;2024-03-02T06:11:11;12.85;;;4.40;;
75939;SDS011;75809;44.872;20.642;2024-03-02T06:13:37;10.15;;;4.25;;
75939;SDS011;75809;44.872;20.642;2024-03-02T06:16:02;10.10;;;4.30;;
75939;SDS011;75809;44.872;20.642;2024-03-02T06:18:28;11.32;;;4.68;;
75939;SDS011;75809;44.872;20.642;2024-03-02T06:20:53;10.07;;;4.60;;
75939;SDS011;75809;44.872;20.642;2024-03-02T06:23:19;10.90;;;4.82;;
75939;SDS011;75809;44.872;20.642;2024-03-02T06:25:45;11.80;;;3.95;;
75939;SDS011;75809;44.872;20.642;2024-03-02T06:28:10;11.45;;;4.78;;
75939;SDS011;75809;44.872;20.642;2024-03-02T06:30:36;10.00;;;3.63;;
75939;SDS011;75809;44.872;20.642;2024-03-02T06:33:01;10.95;;;4.93;;
75939;SDS011;75809;44.872;20.642;2024-03-02T06:35:28;10.75;;;4.45;;
75939;SDS011;75809;44.872;20.642;2024-03-02T06:37:54;16.02;;;4.15;;
75939;SDS011;75809;44.872;20.642;2024-03-02T06:40:20;12.88;;;5.10;;
75939;SDS011;75809;44.872;20.642;2024-03-02T06:42:46;10.35;;;4.65;;
75939;SDS011;75809;44.872;20.642;2024-03-02T06:45:12;13.02;;;5.22;;
75939;SDS011;75809;44.872;20.642;2024-03-02T06:47:37;11.85;;;4.65;;
75939;SDS011;75809;44.872;20.642;2024-03-02T06:50:03;11.85;;;4.60;;
75939;SDS011;75809;44.872;20.642;2024-03-02T06:52:28;13.07;;;5.45;;
75939;SDS011;75809;44.872;20.642;2024-03-02T06:54:54;13.15;;;6.05;;
75939;SDS011;75809;44.872;20.642;2024-03-02T06:57:19;13.25;;;5.97;;
75939;SDS011;75809;44.872;20.642;2024-03-02T06:59:45;11.15;;;4.82;;
75939;SDS011;75809;44.872;20.642;2024-03-02T07:02:12;13.27;;;5.63;;
75939;SDS011;75809;44.872;20.642;2024-03-02T07:04:37;11.18;;;4.63;;
75939;SDS011;75809;44.872;20.642;2024-03-02T07:07:03;10.50;;;4.40;;
75939;SDS011;75809;44.872;20.642;2024-03-02T07:09:28;12.35;;;5.47;;
75939;SDS011;75809;44.872;20.642;2024-03-02T07:11:54;10.38;;;4.40;;
75939;SDS011;75809;44.872;20.642;2024-03-02T07:14:19;11.00;;;4.40;;
75939;SDS011;75809;44.872;20.642;2024-03-02T07:16:45;12.38;;;5.30;;
75939;SDS011;75809;44.872;20.642;2024-03-02T07:19:10;11.27;;;4.88;;
75939;SDS011;75809;44.872;20.642;2024-03-02T07:21:36;13.05;;;4.32;;
75939;SDS011;75809;44.872;20.642;2024-03-02T07:24:01;9.98;;;4.38;;
75939;SDS011;75809;44.872;20.642;2024-03-02T07:26:28;10.90;;;4.90;;
75939;SDS011;75809;44.872;20.642;2024-03-02T07:28:56;10.82;;;4.65;;
75939;SDS011;75809;44.872;20.642;2024-03-02T07:31:22;9.10;;;4.22;;
75939;SDS011;75809;44.872;20.642;2024-03-02T07:33:47;10.77;;;4.05;;
75939;SDS011;75809;44.872;20.642;2024-03-02T07:36:13;9.35;;;4.22;;
75939;SDS011;75809;44.872;20.642;2024-03-02T07:38:38;9.57;;;3.95;;
75939;SDS011;75809;44.872;20.642;2024-03-02T07:41:05;12.13;;;4.57;;
75939;SDS011;75809;44.872;20.642;2024-03-02T07:43:31;10.10;;;4.55;;
75939;SDS011;75809;44.872;20.642;2024-03-02T07:45:58;11.60;;;5.22;;
75939;SDS011;75809;44.872;20.642;2024-03-02T07:48:24;10.18;;;4.40;;
75939;SDS011;75809;44.872;20.642;2024-03-02T07:50:50;11.02;;;5.07;;
75939;SDS011;75809;44.872;20.642;2024-03-02T07:53:15;10.32;;;4.53;;
75939;SDS011;75809;44.872;20.642;2024-03-02T07:55:41;10.95;;;5.28;;
75939;SDS011;75809;44.872;20.642;2024-03-02T07:58:07;10.70;;;4.65;;
75939;SDS011;75809;44.872;20.642;2024-03-02T08:00:33;9.60;;;4.15;;
75939;SDS011;75809;44.872;20.642;2024-03-02T08:02:58;10.50;;;4.30;;
75939;SDS011;75809;44.872;20.642;2024-03-02T08:05:24;11.23;;;4.18;;
75939;SDS011;75809;44.872;20.642;2024-03-02T08:07:50;12.18;;;5.10;;
75939;SDS011;75809;44.872;20.642;2024-03-02T08:10:18;10.77;;;4.55;;
75939;SDS011;75809;44.872;20.642;2024-03-02T08:12:44;13.77;;;5.72;;
75939;SDS011;75809;44.872;20.642;2024-03-02T08:15:10;9.75;;;4.10;;
75939;SDS011;75809;44.872;20.642;2024-03-02T08:17:38;10.07;;;4.50;;
75939;SDS011;75809;44.872;20.642;2024-03-02T08:20:09;11.02;;;4.80;;
75939;SDS011;75809;44.872;20.642;2024-03-02T08:22:36;15.98;;;5.20;;
75939;SDS011;75809;44.872;20.642;2024-03-02T08:25:02;10.88;;;5.22;;
75939;SDS011;75809;44.872;20.642;2024-03-02T08:27:27;13.25;;;4.93;;
75939;SDS011;75809;44.872;20.642;2024-03-02T08:29:53;11.98;;;5.03;;
75939;SDS011;75809;44.872;20.642;2024-03-02T08:32:18;11.55;;;5.15;;
75939;SDS011;75809;44.872;20.642;2024-03-02T08:34:44;11.48;;;5.20;;
75939;SDS011;75809;44.872;20.642;2024-03-02T08:37:10;10.38;;;4.90;;
75939;SDS011;75809;44.872;20.642;2024-03-02T08:39:36;9.90;;;4.60;;
75939;SDS011;75809;44.872;20.642;2024-03-02T08:42:02;12.05;;;5.07;;
75939;SDS011;75809;44.872;20.642;2024-03-02T08:44:29;12.63;;;4.97;;
75939;SDS011;75809;44.872;20.642;2024-03-02T08:46:55;10.10;;;4.32;;
75939;SDS011;75809;44.872;20.642;2024-03-02T08:49:20;9.63;;;3.83;;
75939;SDS011;75809;44.872;20.642;2024-03-02T08:51:46;10.43;;;4.38;;
75939;SDS011;75809;44.872;20.642;2024-03-02T08:54:19;9.02;;;3.92;;
75939;SDS011;75809;44.872;20.642;2024-03-02T08:56:45;10.30;;;4.60;;
75939;SDS011;75809;44.872;20.642;2024-03-02T08:59:11;9.73;;;3.75;;
75939;SDS011;75809;44.872;20.642;2024-03-02T09:01:36;9.40;;;3.88;;
75939;SDS011;75809;44.872;20.642;2024-03-02T09:04:06;11.60;;;4.90;;
75939;SDS011;75809;44.872;20.642;2024-03-02T09:06:33;11.25;;;4.15;;
75939;SDS011;75809;44.872;20.642;2024-03-02T09:08:59;11.25;;;5.03;;
75939;SDS011;75809;44.872;20.642;2024-03-02T09:11:24;10.82;;;5.00;;
75939;SDS011;75809;44.872;20.642;2024-03-02T09:13:50;9.05;;;4.20;;
75939;SDS011;75809;44.872;20.642;2024-03-02T09:16:16;13.27;;;5.57;;
75939;SDS011;75809;44.872;20.642;2024-03-02T09:18:41;10.10;;;3.75;;
75939;SDS011;75809;44.872;20.642;2024-03-02T09:21:07;11.50;;;4.47;;
75939;SDS011;75809;44.872;20.642;2024-03-02T09:23:33;8.02;;;3.10;;
75939;SDS011;75809;44.872;20.642;2024-03-02T09:25:59;10.73;;;5.22;;
75939;SDS011;75809;44.872;20.642;2024-03-02T09:28:24;12.98;;;4.55;;
75939;SDS011;75809;44.872;20.642;2024-03-02T09:30:50;13.93;;;5.10;;
75939;SDS011;75809;44.872;20.642;2024-03-02T09:33:15;13.20;;;5.13;;
75939;SDS011;75809;44.872;20.642;2024-03-02T09:35:41;11.00;;;4.90;;
75939;SDS011;75809;44.872;20.642;2024-03-02T09:38:06;13.07;;;4.75;;
75939;SDS011;75809;44.872;20.642;2024-03-02T09:40:32;11.18;;;4.47;;
75939;SDS011;75809;44.872;20.642;2024-03-02T09:42:57;10.02;;;4.07;;
75939;SDS011;75809;44.872;20.642;2024-03-02T09:45:24;8.95;;;3.85;;
75939;SDS011;75809;44.872;20.642;2024-03-02T09:47:50;9.75;;;3.72;;
75939;SDS011;75809;44.872;20.642;2024-03-02T09:50:16;9.65;;;4.10;;
75939;SDS011;75809;44.872;20.642;2024-03-02T09:52:42;10.85;;;4.13;;
75939;SDS011;75809;44.872;20.642;2024-03-02T09:55:08;11.75;;;4.10;;
75939;SDS011;75809;44.872;20.642;2024-03-02T09:57:34;12.98;;;4.80;;
75939;SDS011;75809;44.872;20.642;2024-03-02T10:00:00;10.68;;;4.30;;
75939;SDS011;75809;44.872;20.642;2024-03-02T10:02:26;12.20;;;4.43;;
75939;SDS011;75809;44.872;20.642;2024-03-02T10:04:51;8.52;;;4.25;;
75939;SDS011;75809;44.872;20.642;2024-03-02T10:07:17;12.98;;;5.65;;
75939;SDS011;75809;44.872;20.642;2024-03-02T10:09:44;12.02;;;4.75;;
75939;SDS011;75809;44.872;20.642;2024-03-02T10:12:13;11.68;;;5.05;;
75939;SDS011;75809;44.872;20.642;2024-03-02T10:14:40;12.75;;;5.47;;
75939;SDS011;75809;44.872;20.642;2024-03-02T10:17:08;8.00;;;4.10;;
75939;SDS011;75809;44.872;20.642;2024-03-02T10:19:35;11.25;;;4.10;;
75939;SDS011;75809;44.872;20.642;2024-03-02T10:22:05;11.48;;;4.93;;
75939;SDS011;75809;44.872;20.642;2024-03-02T10:24:42;16.55;;;5.13;;
75939;SDS011;75809;44.872;20.642;2024-03-02T10:27:15;13.35;;;4.40;;
75939;SDS011;75809;44.872;20.642;2024-03-02T10:29:42;11.63;;;4.80;;
75939;SDS011;75809;44.872;20.642;2024-03-02T10:32:11;13.30;;;5.38;;
75939;SDS011;75809;44.872;20.642;2024-03-02T10:34:37;11.57;;;5.18;;
75939;SDS011;75809;44.872;20.642;2024-03-02T10:37:07;11.20;;;4.80;;
75939;SDS011;75809;44.872;20.642;2024-03-02T10:39:34;14.20;;;5.57;;
75939;SDS011;75809;44.872;20.642;2024-03-02T10:42:05;10.52;;;4.65;;
75939;SDS011;75809;44.872;20.642;2024-03-02T10:44:32;10.13;;;4.60;;
75939;SDS011;75809;44.872;20.642;2024-03-02T10:47:01;10.60;;;4.65;;
75939;SDS011;75809;44.872;20.642;2024-03-02T10:49:29;10.65;;;4.50;;
75939;SDS011;75809;44.872;20.642;2024-03-02T10:51:57;12.65;;;4.75;;
75939;SDS011;75809;44.872;20.642;2024-03-02T10:54:23;13.35;;;5.03;;
75939;SDS011;75809;44.872;20.642;2024-03-02T10:56:52;12.15;;;4.43;;
75939;SDS011;75809;44.872;20.642;2024-03-02T11:01:53;11.45;;;4.43;;
75939;SDS011;75809;44.872;20.642;2024-03-02T11:04:22;13.57;;;4.70;;
75939;SDS011;75809;44.872;20.642;2024-03-02T11:06:50;10.50;;;4.03;;
75939;SDS011;75809;44.872;20.642;2024-03-02T11:09:18;12.73;;;4.60;;
75939;SDS011;75809;44.872;20.642;2024-03-02T11:11:48;12.45;;;5.15;;
75939;SDS011;75809;44.872;20.642;2024-03-02T11:14:21;11.75;;;5.18;;
75939;SDS011;75809;44.872;20.642;2024-03-02T11:16:50;12.98;;;5.30;;
75939;SDS011;75809;44.872;20.642;2024-03-02T11:19:17;11.80;;;4.85;;
75939;SDS011;75809;44.872;20.642;2024-03-02T11:21:43;10.02;;;3.90;;
75939;SDS011;75809;44.872;20.642;2024-03-02T11:26:52;10.32;;;4.68;;
75939;SDS011;75809;44.872;20.642;2024-03-02T11:32:03;8.05;;;3.65;;
75939;SDS011;75809;44.872;20.642;2024-03-02T11:34:31;11.02;;;4.38;;
75939;SDS011;75809;44.872;20.642;2024-03-02T11:36:58;13.05;;;5.10;;
75939;SDS011;75809;44.872;20.642;2024-03-02T11:39:27;11.60;;;4.28;;
75939;SDS011;75809;44.872;20.642;2024-03-02T11:41:53;10.85;;;4.82;;
75939;SDS011;75809;44.872;20.642;2024-03-02T11:44:21;10.32;;;4.30;;
75939;SDS011;75809;44.872;20.642;2024-03-02T11:46:51;9.02;;;4.10;;
75939;SDS011;75809;44.872;20.642;2024-03-02T11:49:38;10.13;;;4.15;;
75939;SDS011;75809;44.872;20.642;2024-03-02T11:52:08;11.27;;;4.55;;
75939;SDS011;75809;44.872;20.642;2024-03-02T11:54:39;11.75;;;4.85;;
75939;SDS011;75809;44.872;20.642;2024-03-02T11:57:11;9.75;;;3.55;;
75939;SDS011;75809;44.872;20.642;2024-03-02T11:59:37;11.45;;;4.47;;
75939;SDS011;75809;44.872;20.642;2024-03-02T12:02:02;13.23;;;4.40;;
75939;SDS011;75809;44.872;20.642;2024-03-02T12:04:28;8.27;;;3.88;;
75939;SDS011;75809;44.872;20.642;2024-03-02T12:06:55;12.52;;;5.10;;
75939;SDS011;75809;44.872;20.642;2024-03-02T12:09:27;13.02;;;4.28;;
75939;SDS011;75809;44.872;20.642;2024-03-02T12:12:06;10.48;;;4.05;;
75939;SDS011;75809;44.872;20.642;2024-03-02T12:14:36;11.18;;;4.70;;
75939;SDS011;75809;44.872;20.642;2024-03-02T12:17:02;12.50;;;4.18;;
75939;SDS011;75809;44.872;20.642;2024-03-02T12:19:29;13.30;;;4.18;;
75939;SDS011;75809;44.872;20.642;2024-03-02T12:21:56;10.77;;;3.97;;
75939;SDS011;75809;44.872;20.642;2024-03-02T12:24:21;11.43;;;3.80;;
75939;SDS011;75809;44.872;20.642;2024-03-02T12:26:49;12.25;;;4.75;;
75939;SDS011;75809;44.872;20.642;2024-03-02T12:29:15;10.90;;;4.30;;
75939;SDS011;75809;44.872;20.642;2024-03-02T12:31:42;10.77;;;4.20;;
75939;SDS011;75809;44.872;20.642;2024-03-02T12:36:37;10.13;;;4.25;;
75939;SDS011;75809;44.872;20.642;2024-03-02T12:39:04;10.10;;;4.00;;
75939;SDS011;75809;44.872;20.642;2024-03-02T12:41:29;9.60;;;3.95;;
75939;SDS011;75809;44.872;20.642;2024-03-02T12:43:55;11.10;;;4.18;;
75939;SDS011;75809;44.872;20.642;2024-03-02T12:46:20;10.93;;;3.70;;
75939;SDS011;75809;44.872;20.642;2024-03-02T12:48:46;11.32;;;4.40;;
75939;SDS011;75809;44.872;20.642;2024-03-02T12:51:11;11.25;;;4.25;;
75939;SDS011;75809;44.872;20.642;2024-03-02T12:53:37;9.98;;;4.22;;
75939;SDS011;75809;44.872;20.642;2024-03-02T12:56:02;9.68;;;3.60;;
75939;SDS011;75809;44.872;20.642;2024-03-02T12:58:29;8.77;;;3.95;;
75939;SDS011;75809;44.872;20.642;2024-03-02T13:01:05;10.95;;;3.83;;
75939;SDS011;75809;44.872;20.642;2024-03-02T13:03:34;10.77;;;4.00;;
75939;SDS011;75809;44.872;20.642;2024-03-02T13:06:01;9.10;;;4.00;;
75939;SDS011;75809;44.872;20.642;2024-03-02T13:08:27;9.48;;;3.83;;
75939;SDS011;75809;44.872;20.642;2024-03-02T13:10:52;9.63;;;3.95;;
75939;SDS011;75809;44.872;20.642;2024-03-02T13:13:18;9.05;;;3.35;;
75939;SDS011;75809;44.872;20.642;2024-03-02T13:15:43;10.95;;;4.00;;
75939;SDS011;75809;44.872;20.642;2024-03-02T13:18:10;12.10;;;4.78;;
75939;SDS011;75809;44.872;20.642;2024-03-02T13:20:36;8.98;;;3.67;;
75939;SDS011;75809;44.872;20.642;2024-03-02T13:23:02;12.77;;;5.05;;
75939;SDS011;75809;44.872;20.642;2024-03-02T13:25:28;14.55;;;5.90;;
75939;SDS011;75809;44.872;20.642;2024-03-02T13:27:53;12.88;;;4.50;;
75939;SDS011;75809;44.872;20.642;2024-03-02T13:30:19;9.13;;;4.18;;
75939;SDS011;75809;44.872;20.642;2024-03-02T13:32:44;12.80;;;4.40;;
75939;SDS011;75809;44.872;20.642;2024-03-02T13:35:10;11.88;;;4.57;;
75939;SDS011;75809;44.872;20.642;2024-03-02T13:37:36;11.20;;;4.43;;
75939;SDS011;75809;44.872;20.642;2024-03-02T13:40:02;9.85;;;4.10;;
75939;SDS011;75809;44.872;20.642;2024-03-02T13:42:29;16.17;;;4.88;;
75939;SDS011;75809;44.872;20.642;2024-03-02T13:44:55;13.63;;;4.03;;
75939;SDS011;75809;44.872;20.642;2024-03-02T13:47:21;8.75;;;3.92;;
75939;SDS011;75809;44.872;20.642;2024-03-02T13:49:47;10.02;;;4.10;;
75939;SDS011;75809;44.872;20.642;2024-03-02T13:52:14;12.38;;;4.53;;
75939;SDS011;75809;44.872;20.642;2024-03-02T13:54:42;13.73;;;5.72;;
75939;SDS011;75809;44.872;20.642;2024-03-02T13:57:09;14.90;;;6.68;;
75939;SDS011;75809;44.872;20.642;2024-03-02T13:59:36;13.80;;;4.75;;
75939;SDS011;75809;44.872;20.642;2024-03-02T14:02:02;10.82;;;4.65;;
75939;SDS011;75809;44.872;20.642;2024-03-02T14:04:32;10.13;;;4.20;;
75939;SDS011;75809;44.872;20.642;2024-03-02T14:06:58;9.55;;;3.95;;
75939;SDS011;75809;44.872;20.642;2024-03-02T14:09:25;10.18;;;4.60;;
75939;SDS011;75809;44.872;20.642;2024-03-02T14:11:50;10.65;;;4.95;;
75939;SDS011;75809;44.872;20.642;2024-03-02T14:14:17;12.85;;;4.43;;
75939;SDS011;75809;44.872;20.642;2024-03-02T14:16:43;10.50;;;3.92;;
75939;SDS011;75809;44.872;20.642;2024-03-02T14:19:09;9.70;;;4.22;;
75939;SDS011;75809;44.872;20.642;2024-03-02T14:21:35;9.10;;;4.30;;
75939;SDS011;75809;44.872;20.642;2024-03-02T14:24:01;9.70;;;3.95;;
75939;SDS011;75809;44.872;20.642;2024-03-02T14:26:27;12.18;;;4.78;;
75939;SDS011;75809;44.872;20.642;2024-03-02T14:28:53;11.27;;;3.70;;
75939;SDS011;75809;44.872;20.642;2024-03-02T14:31:19;8.00;;;3.72;;
75939;SDS011;75809;44.872;20.642;2024-03-02T14:33:46;10.25;;;3.90;;
75939;SDS011;75809;44.872;20.642;2024-03-02T14:36:11;10.85;;;4.20;;
75939;SDS011;75809;44.872;20.642;2024-03-02T14:38:37;9.40;;;3.67;;